^^
Saratoga-Weather Station Historical Data
Daily Summary for August 8, 2020 Units:  English    Metric   Both
Daily Weekly Monthly Yearly Custom
  High: Low: Average:
Temperature: 49.6 °F 37.2 °F 44.2 °F
Dew Point: 49.1 °F 36.1 °F 43.5 °F
Humidity: 99% 96% 98%
Wind Speed: 4mph 0mph 0.7mph
Wind Gust: 8mph - -
Wind- - ESE
Pressure: 30.4 in 30.3 in -
Precipitation: 0.09 in    
Historical Graphs
 
 
Tabular Data for August 8, 2020
Time Temperature Dew Point Pressure Wind Wind Speed Wind Gust Humidity Rainfall Rate (Hourly) solar
00:02 37.2 °F 36.1 °F 30.4 in Calm   2 mph 96% 0 in 0 W/m2
00:07 37.2 °F 36.1 °F 30.4 in ESE 2.9 mph 3 mph 96% 0 in 0 W/m2
00:12 37.2 °F 36.1 °F 30.4 in Calm   3 mph 96% 0 in 0 W/m2
00:17 37.2 °F 36.1 °F 30.4 in Calm   4 mph 96% 0 in 0 W/m2
00:22 37.2 °F 36.1 °F 30.4 in Calm   4 mph 96% 0 in 0 W/m2
00:27 37.2 °F 36.1 °F 30.4 in Calm     96% 0 in 0 W/m2
00:32 37.2 °F 36.1 °F 30.4 in Calm   4 mph 96% 0 in 0 W/m2
00:37 37.2 °F 36.1 °F 30.4 in Calm   2 mph 96% 0 in 0 W/m2
00:42 37.2 °F 36.1 °F 30.4 in Calm   4 mph 96% 0 in 0 W/m2
00:47 37.2 °F 36.1 °F 30.4 in Calm     96% 0 in 0 W/m2
00:52 37.2 °F 36.1 °F 30.4 in Calm     96% 0 in 0 W/m2
00:57 37.2 °F 36.1 °F 30.4 in Calm     96% 0 in 0 W/m2
01:02 37.2 °F 36.1 °F 30.4 in Calm     96% 0 in 0 W/m2
01:07 37.2 °F 36.1 °F 30.4 in Calm     96% 0 in 0 W/m2
01:12 37.2 °F 36.1 °F 30.4 in Calm     96% 0 in 0 W/m2
01:17 37.2 °F 36.1 °F 30.4 in Calm     96% 0 in 0 W/m2
01:22 37.2 °F 36.1 °F 30.4 in Calm     96% 0 in 0 W/m2
01:27 37.2 °F 36.1 °F 30.4 in Calm     96% 0 in 0 W/m2
01:32 37.2 °F 36.1 °F 30.4 in ESE 2 mph 3 mph 96% 0 in 0 W/m2
01:37 37.2 °F 36.1 °F 30.4 in Calm   4 mph 96% 0 in 0 W/m2
01:42 37.2 °F 36.1 °F 30.4 in SE 0.9 mph 2 mph 96% 0 in 0 W/m2
01:47 37.2 °F 36.1 °F 30.4 in Calm   4 mph 96% 0 in 0 W/m2
01:52 37.2 °F 36.1 °F 30.4 in Calm     96% 0 in 0 W/m2
01:57 37.2 °F 36.1 °F 30.3 in Calm     96% 0 in 0 W/m2
02:02 37.4 °F 36.3 °F 30.3 in Calm   4 mph 96% 0 in 0 W/m2
02:08 37.6 °F 36.5 °F 30.3 in Calm     96% 0 in 0 W/m2
02:13 37.6 °F 36.9 °F 30.3 in Calm   4 mph 97% 0 in 0 W/m2
02:18 37.8 °F 37 °F 30.3 in Calm     97% 0 in 0 W/m2
02:23 37.8 °F 37 °F 30.3 in Calm     97% 0 in 0 W/m2
02:28 37.8 °F 37 °F 30.3 in Calm     97% 0 in 0 W/m2
02:33 37.8 °F 37 °F 30.3 in Calm     97% 0 in 0 W/m2
02:38 37.8 °F 37 °F 30.3 in Calm     97% 0 in 0 W/m2
02:43 37.8 °F 37 °F 30.3 in Calm     97% 0 in 0 W/m2
02:48 37.8 °F 37 °F 30.4 in Calm     97% 0 in 0 W/m2
02:53 37.9 °F 37.2 °F 30.3 in Calm     97% 0 in 0 W/m2
02:58 37.9 °F 37.2 °F 30.3 in Calm     97% 0.01 in 0 W/m2
03:03 37.9 °F 37.2 °F 30.4 in Calm     97% 0.01 in 0 W/m2
03:08 37.9 °F 37.2 °F 30.4 in Calm     97% 0.01 in 0 W/m2
03:13 37.9 °F 37.2 °F 30.4 in Calm     97% 0.01 in 0 W/m2
03:18 37.9 °F 37.2 °F 30.3 in Calm     97% 0.01 in 0 W/m2
03:23 37.9 °F 37.2 °F 30.3 in Calm     97% 0.01 in 0 W/m2
03:28 37.9 °F 37.2 °F 30.3 in Calm     97% 0.01 in 0 W/m2
03:33 37.9 °F 37.2 °F 30.3 in Calm     97% 0.01 in 0 W/m2
03:38 37.9 °F 37.2 °F 30.3 in Calm     97% 0.01 in 0 W/m2
03:43 37.9 °F 37.2 °F 30.3 in Calm     97% 0.01 in 0 W/m2
03:48 37.9 °F 37.2 °F 30.3 in Calm     97% 0.01 in 0 W/m2
03:53 37.9 °F 37.2 °F 30.3 in Calm     97% 0.01 in 0 W/m2
03:59 38.1 °F 37.4 °F 30.3 in Calm     97% 0 in 0 W/m2
04:04 38.1 °F 37.4 °F 30.3 in Calm   1 mph 97% 0 in 0 W/m2
04:09 38.5 °F 37.8 °F 30.3 in Calm     97% 0 in 0 W/m2
04:14 38.7 °F 37.9 °F 30.3 in Calm     97% 0 in 0 W/m2
04:19 38.8 °F 38.1 °F 30.3 in Calm     97% 0 in 0 W/m2
04:24 38.8 °F 38.1 °F 30.3 in Calm     97% 0 in 0 W/m2
04:29 38.8 °F 38.1 °F 30.3 in Calm     97% 0 in 0 W/m2
04:34 38.8 °F 38.1 °F 30.3 in Calm     97% 0 in 0 W/m2
04:39 38.8 °F 38.1 °F 30.3 in Calm     97% 0 in 0 W/m2
04:44 38.7 °F 37.9 °F 30.3 in Calm     97% 0 in 0 W/m2
04:49 38.7 °F 37.9 °F 30.3 in Calm     97% 0 in 0 W/m2
04:54 38.7 °F 37.9 °F 30.3 in Calm     97% 0 in 0 W/m2
04:59 38.8 °F 38.1 °F 30.3 in Calm     97% 0 in 0 W/m2
05:04 38.8 °F 38.1 °F 30.3 in Calm     97% 0 in 0 W/m2
05:09 38.8 °F 38.1 °F 30.3 in Calm     97% 0 in 0 W/m2
05:14 38.8 °F 38.1 °F 30.3 in Calm     97% 0 in 0 W/m2
05:19 38.8 °F 38.1 °F 30.3 in Calm     97% 0 in 0 W/m2
05:24 38.8 °F 38.1 °F 30.3 in Calm     97% 0 in 0 W/m2
05:29 39 °F 38.3 °F 30.3 in Calm     97% 0 in 0 W/m2
05:34 39 °F 38.3 °F 30.3 in Calm     97% 0 in 0 W/m2
05:39 39 °F 38.3 °F 30.3 in Calm     97% 0 in 0 W/m2
05:44 39 °F 38.3 °F 30.3 in Calm     97% 0 in 0 W/m2
05:49 39.2 °F 38.5 °F 30.3 in Calm     97% 0 in 0 W/m2
05:54 39.2 °F 38.5 °F 30.3 in Calm     97% 0 in 0 W/m2
05:59 39.4 °F 38.7 °F 30.3 in Calm     97% 0 in 0 W/m2
06:04 39.4 °F 38.7 °F 30.3 in Calm     97% 0 in 0 W/m2
06:09 39.4 °F 38.7 °F 30.3 in Calm     97% 0 in 0 W/m2
06:14 39.6 °F 38.8 °F 30.3 in Calm     97% 0 in 0 W/m2
06:19 39.6 °F 38.8 °F 30.3 in Calm     97% 0 in 0 W/m2
06:24 39.7 °F 39 °F 30.3 in Calm     97% 0 in 0 W/m2
06:29 39.7 °F 39.2 °F 30.3 in Calm     98% 0.01 in 0 W/m2
06:34 39.9 °F 39.4 °F 30.3 in Calm     98% 0.01 in 0 W/m2
06:39 39.9 °F 39.4 °F 30.3 in East 2.9 mph 4 mph 98% 0.02 in 0 W/m2
06:44 40.3 °F 39.6 °F 30.3 in Calm     97% 0.02 in 0 W/m2
06:49 40.3 °F 39.6 °F 30.3 in East 0.9 mph 2 mph 97% 0.02 in 0 W/m2
06:54 40.3 °F 39.6 °F 30.3 in Calm     97% 0.02 in 0 W/m2
06:59 40.5 °F 39.9 °F 30.3 in Calm     98% 0.02 in 0 W/m2
07:04 40.5 °F 39.9 °F 30.3 in Calm     98% 0.02 in 0 W/m2
07:09 40.5 °F 39.9 °F 30.3 in Calm     98% 0.02 in 0 W/m2
07:14 40.5 °F 39.9 °F 30.3 in Calm     98% 0.02 in 0 W/m2
07:19 40.6 °F 40.1 °F 30.3 in Calm     98% 0.02 in 0 W/m2
07:24 40.6 °F 40.1 °F 30.3 in Calm     98% 0.02 in 0 W/m2
07:30 40.8 °F 40.3 °F 30.3 in Calm     98% 0.01 in 0 W/m2
07:35 40.8 °F 40.3 °F 30.3 in Calm     98% 0.01 in 0 W/m2
07:40 40.8 °F 40.3 °F 30.3 in Calm     98% 0 in 0 W/m2
07:45 41 °F 40.5 °F 30.3 in Calm     98% 0.01 in 0 W/m2
07:50 41.2 °F 40.6 °F 30.3 in Calm     98% 0.01 in 0 W/m2
07:55 41.4 °F 40.8 °F 30.3 in Calm     98% 0.01 in 0 W/m2
08:00 41.4 °F 40.8 °F 30.3 in Calm     98% 0.01 in 0 W/m2
08:05 41.4 °F 40.8 °F 30.3 in Calm     98% 0.01 in 0 W/m2
08:10 41.5 °F 41 °F 30.3 in Calm   2 mph 98% 0.01 in 0 W/m2
08:15 41.5 °F 41 °F 30.3 in ESE 2 mph 4 mph 98% 0.01 in 0 W/m2
08:20 41.5 °F 41 °F 30.3 in ESE 0.9 mph 3 mph 98% 0.01 in 0 W/m2
08:25 41.7 °F 41.2 °F 30.3 in ESE 0.9 mph 2 mph 98% 0.01 in 0 W/m2
08:30 41.7 °F 41.2 °F 30.3 in Calm     98% 0.01 in 0 W/m2
08:35 41.9 °F 41.4 °F 30.3 in SE 2.9 mph 3 mph 98% 0.01 in 0 W/m2
08:40 42.1 °F 41.5 °F 30.3 in SE 2 mph 2 mph 98% 0.02 in 0 W/m2
08:45 42.1 °F 41.5 °F 30.3 in ESE 2 mph 3 mph 98% 0.01 in 0 W/m2
08:50 42.1 °F 41.5 °F 30.3 in ESE 2 mph 3 mph 98% 0.01 in 0 W/m2
08:55 42.1 °F 41.5 °F 30.3 in ESE 2 mph 3 mph 98% 0.01 in 0 W/m2
09:00 42.1 °F 41.5 °F 30.3 in SE 2 mph 4 mph 98% 0.01 in 7 W/m2
09:05 42.3 °F 41.7 °F 30.3 in ESE 2.9 mph 3 mph 98% 0.01 in 9 W/m2
09:10 42.3 °F 41.7 °F 30.3 in SE 0.9 mph 4 mph 98% 0.01 in 11 W/m2
09:16 42.4 °F 41.9 °F 30.3 in Calm     98% 0.01 in 11 W/m2
09:21 42.4 °F 41.9 °F 30.3 in ESE 2.9 mph 3 mph 98% 0.01 in 12 W/m2
09:26 42.6 °F 42.1 °F 30.3 in ESE 0.9 mph 3 mph 98% 0.01 in 14 W/m2
09:31 42.6 °F 42.1 °F 30.3 in ESE 2 mph 3 mph 98% 0.01 in 16 W/m2
09:36 42.6 °F 42.1 °F 30.3 in East 4 mph 4 mph 98% 0.02 in 18 W/m2
09:41 42.8 °F 42.3 °F 30.3 in East 0.9 mph 3 mph 98% 0.01 in 12 W/m2
09:46 43 °F 42.4 °F 30.3 in Calm     98% 0.01 in 12 W/m2
09:51 43 °F 42.4 °F 30.3 in ESE 0.9 mph 2 mph 98% 0.01 in 16 W/m2
09:56 43.2 °F 42.6 °F 30.3 in Calm     98% 0.01 in 21 W/m2
10:01 43.2 °F 42.6 °F 30.3 in Calm     98% 0.01 in 32 W/m2
10:06 43.2 °F 42.6 °F 30.3 in Calm     98% 0.01 in 33 W/m2
10:11 43.3 °F 42.8 °F 30.3 in East 2 mph 3 mph 98% 0.02 in 35 W/m2
10:16 43.5 °F 43 °F 30.3 in East 2.9 mph 4 mph 98% 0.02 in 39 W/m2
10:21 43.5 °F 43 °F 30.3 in Calm   2 mph 98% 0.02 in 35 W/m2
10:26 43.7 °F 43.2 °F 30.3 in East 0.9 mph 4 mph 98% 0.02 in 30 W/m2
10:31 43.9 °F 43.3 °F 30.3 in Calm   3 mph 98% 0.02 in 26 W/m2
10:36 43.9 °F 43.3 °F 30.4 in East 0.9 mph 4 mph 98% 0.01 in 26 W/m2
10:41 43.9 °F 43.3 °F 30.4 in East 0.9 mph 2 mph 98% 0.01 in 25 W/m2
10:46 44.1 °F 43.5 °F 30.4 in Calm   2 mph 98% 0.01 in 26 W/m2
10:51 44.1 °F 43.5 °F 30.4 in East 4 mph 6 mph 98% 0.01 in 30 W/m2
10:57 44.1 °F 43.5 °F 30.4 in East 2.9 mph 4 mph 98% 0.01 in 37 W/m2
11:02 44.2 °F 43.7 °F 30.4 in ENE 2 mph 6 mph 98% 0.02 in 37 W/m2
11:07 44.2 °F 43.7 °F 30.3 in ESE 2.9 mph 3 mph 98% 0.02 in 46 W/m2
11:12 44.4 °F 43.9 °F 30.3 in Calm   3 mph 98% 0.01 in 49 W/m2
11:17 44.8 °F 44.2 °F 30.4 in Calm   2 mph 98% 0.01 in 46 W/m2
11:22 44.8 °F 44.2 °F 30.4 in ENE 2 mph 3 mph 98% 0.01 in 40 W/m2
11:27 45 °F 44.4 °F 30.4 in ENE 0.9 mph 3 mph 98% 0.01 in 40 W/m2
11:32 45 °F 44.4 °F 30.3 in NE 4 mph 4 mph 98% 0.01 in 40 W/m2
11:37 45 °F 44.4 °F 30.3 in Calm   3 mph 98% 0.01 in 37 W/m2
11:42 45 °F 44.4 °F 30.3 in East 2 mph 3 mph 98% 0.01 in 44 W/m2
11:47 45 °F 44.4 °F 30.3 in East 0.9 mph 4 mph 98% 0.01 in 58 W/m2
11:52 45.1 °F 44.6 °F 30.3 in East 2 mph 3 mph 98% 0.01 in 62 W/m2
11:57 45.5 °F 45 °F 30.3 in ENE 2 mph 4 mph 98% 0.01 in 53 W/m2
12:02 45.5 °F 45 °F 30.3 in ENE 2.9 mph 4 mph 98% 0 in 39 W/m2
12:07 45.7 °F 45.1 °F 30.3 in ENE 2.9 mph 4 mph 98% 0 in 35 W/m2
12:12 45.7 °F 45.1 °F 30.3 in Calm     98% 0 in 37 W/m2
12:17 45.9 °F 45.3 °F 30.3 in ENE 2 mph 4 mph 98% 0.01 in 47 W/m2
12:22 46 °F 45.5 °F 30.3 in Calm   1 mph 98% 0.01 in 44 W/m2
12:27 46.2 °F 45.7 °F 30.3 in NE 0.9 mph 3 mph 98% 0.01 in 39 W/m2
12:32 46.4 °F 45.9 °F 30.3 in Calm   1 mph 98% 0.01 in 26 W/m2
12:37 46.6 °F 46 °F 30.3 in NW 2 mph 4 mph 98% 0.01 in 32 W/m2
12:42 46.8 °F 46.2 °F 30.3 in Calm     98% 0.01 in 47 W/m2
12:47 46.8 °F 46.2 °F 30.3 in NNE 2 mph 2 mph 98% 0.01 in 86 W/m2
12:52 46.9 °F 46.4 °F 30.3 in Calm   3 mph 98% 0.01 in 90 W/m2
12:57 47.1 °F 46.9 °F 30.3 in NNE 4 mph 4 mph 99% 0.01 in 69 W/m2
13:02 47.1 °F 46.6 °F 30.3 in Calm   2 mph 98% 0.01 in 56 W/m2
13:07 47.3 °F 46.8 °F 30.3 in South 2 mph 4 mph 98% 0.01 in 53 W/m2
13:12 47.3 °F 46.8 °F 30.3 in NE 2.9 mph 4 mph 98% 0.01 in 49 W/m2
13:17 47.5 °F 46.9 °F 30.3 in Calm   2 mph 98% 0 in 53 W/m2
13:22 47.5 °F 46.9 °F 30.3 in NE 2.9 mph 4 mph 98% 0 in 47 W/m2
13:27 47.5 °F 46.9 °F 30.3 in Calm   3 mph 98% 0 in 51 W/m2
13:32 47.5 °F 46.9 °F 30.3 in Calm   1 mph 98% 0 in 54 W/m2
13:37 47.5 °F 46.9 °F 30.3 in Calm   2 mph 98% 0 in 47 W/m2
13:42 47.7 °F 47.1 °F 30.3 in East 2.9 mph 4 mph 98% 0 in 63 W/m2
13:47 47.7 °F 47.1 °F 30.3 in Calm     98% 0 in 42 W/m2
13:52 47.7 °F 47.1 °F 30.3 in Calm   1 mph 98% 0 in 53 W/m2
13:57 47.8 °F 47.3 °F 30.3 in Calm   3 mph 98% 0.01 in 62 W/m2
14:02 47.8 °F 47.3 °F 30.3 in Calm   3 mph 98% 0.01 in 60 W/m2
14:07 48 °F 47.5 °F 30.3 in ENE 2.9 mph 4 mph 98% 0.01 in 56 W/m2
14:12 47.8 °F 47.3 °F 30.3 in ENE 2.9 mph 4 mph 98% 0.01 in 77 W/m2
14:17 48 °F 47.5 °F 30.3 in ENE 0.9 mph 1 mph 98% 0.01 in 95 W/m2
14:22 48.2 °F 47.7 °F 30.3 in NNE 4 mph 4 mph 98% 0.01 in 95 W/m2
14:28 48 °F 47.5 °F 30.3 in Calm   4 mph 98% 0.01 in 56 W/m2
14:33 47.8 °F 47.3 °F 30.3 in ENE 2.9 mph 5 mph 98% 0.01 in 46 W/m2
14:38 47.8 °F 47.3 °F 30.3 in Calm   1 mph 98% 0.01 in 44 W/m2
14:43 47.8 °F 47.3 °F 30.3 in Calm   3 mph 98% 0.01 in 39 W/m2
14:48 48 °F 47.5 °F 30.3 in East 2 mph 3 mph 98% 0.01 in 30 W/m2
14:53 47.8 °F 47.3 °F 30.3 in Calm     98% 0.01 in 25 W/m2
14:58 47.7 °F 47.1 °F 30.3 in ESE 0.9 mph 2 mph 98% 0 in 23 W/m2
15:03 47.7 °F 47.1 °F 30.3 in East 0.9 mph 3 mph 98% 0 in 18 W/m2
15:08 47.7 °F 47.1 °F 30.3 in East 0.9 mph 1 mph 98% 0 in 16 W/m2
15:13 47.8 °F 47.3 °F 30.3 in Calm   1 mph 98% 0 in 18 W/m2
15:18 47.8 °F 47.3 °F 30.3 in SSE 0.9 mph 2 mph 98% 0 in 18 W/m2
15:23 47.8 °F 47.3 °F 30.3 in Calm     98% 0 in 14 W/m2
15:28 47.8 °F 47.3 °F 30.3 in Calm     98% 0 in 12 W/m2
15:33 47.8 °F 47.3 °F 30.3 in Calm   1 mph 98% 0 in 12 W/m2
15:38 47.8 °F 47.3 °F 30.3 in Calm   3 mph 98% 0 in 11 W/m2
15:43 47.8 °F 47.3 °F 30.3 in ENE 0.9 mph 2 mph 98% 0 in 12 W/m2
15:48 47.7 °F 47.1 °F 30.3 in Calm   2 mph 98% 0 in 12 W/m2
15:53 47.7 °F 47.1 °F 30.3 in East 2 mph 2 mph 98% 0 in 12 W/m2
15:58 47.7 °F 47.1 °F 30.3 in Calm     98% 0 in 12 W/m2
16:03 47.7 °F 47.1 °F 30.3 in ESE 2 mph 3 mph 98% 0 in 12 W/m2
16:08 47.7 °F 47.1 °F 30.3 in East 2.9 mph 4 mph 98% 0 in 12 W/m2
16:14 47.5 °F 46.9 °F 30.3 in East 2 mph 3 mph 98% 0 in 9 W/m2
16:19 47.7 °F 47.1 °F 30.3 in East 2 mph 3 mph 98% 0 in 5 W/m2
16:24 47.5 °F 46.9 °F 30.3 in East 2 mph 3 mph 98% 0 in 0 W/m2
16:29 47.5 °F 46.9 °F 30.3 in East 2.9 mph 4 mph 98% 0 in 5 W/m2
16:34 47.3 °F 46.8 °F 30.3 in East 2 mph 4 mph 98% 0 in 5 W/m2
16:39 47.3 °F 46.8 °F 30.3 in East 0.9 mph 5 mph 98% 0 in 5 W/m2
16:44 47.7 °F 47.1 °F 30.3 in ENE 2.9 mph 4 mph 98% 0 in 0 W/m2
16:49 48 °F 47.5 °F 30.3 in Calm     98% 0 in 0 W/m2
16:54 48.2 °F 47.7 °F 30.3 in Calm   3 mph 98% 0 in 0 W/m2
16:59 48.6 °F 48 °F 30.3 in Calm   3 mph 98% 0 in 0 W/m2
17:04 48.7 °F 48.2 °F 30.3 in West 0.9 mph 3 mph 98% 0 in 0 W/m2
17:09 48.9 °F 48.7 °F 30.3 in Calm   2 mph 99% 0 in 0 W/m2
17:15 48.9 °F 48.4 °F 30.3 in Calm   1 mph 98% 0 in 0 W/m2
17:20 48.9 °F 48.4 °F 30.3 in Calm     98% 0 in 0 W/m2
17:25 48.7 °F 48.2 °F 30.3 in South 0.9 mph 4 mph 98% 0 in 0 W/m2
17:30 48.9 °F 48.4 °F 30.3 in Calm     98% 0 in 0 W/m2
17:35 48.9 °F 48.4 °F 30.3 in SW 0.9 mph 4 mph 98% 0 in 0 W/m2
17:40 49.1 °F 48.6 °F 30.3 in Calm   3 mph 98% 0 in 0 W/m2
17:45 49.3 °F 48.7 °F 30.3 in Calm   8 mph 98% 0 in 0 W/m2
17:50 49.3 °F 48.7 °F 30.3 in ENE 2 mph 3 mph 98% 0 in 0 W/m2
17:55 49.3 °F 48.7 °F 30.3 in WNW 2 mph 5 mph 98% 0 in 0 W/m2
18:00 49.3 °F 48.7 °F 30.3 in Calm   4 mph 98% 0 in 0 W/m2
18:05 49.3 °F 48.7 °F 30.3 in Calm   5 mph 98% 0 in 0 W/m2
18:10 49.3 °F 48.7 °F 30.3 in Calm   1 mph 98% 0 in 0 W/m2
18:15 49.3 °F 48.7 °F 30.3 in Calm     98% 0 in 0 W/m2
18:20 49.5 °F 48.9 °F 30.3 in WSW 0.9 mph 2 mph 98% 0 in 0 W/m2
18:25 49.5 °F 48.9 °F 30.3 in Calm   3 mph 98% 0 in 0 W/m2
18:30 49.5 °F 48.9 °F 30.3 in Calm     98% 0 in 0 W/m2
18:35 49.5 °F 48.9 °F 30.3 in SSW 2 mph 4 mph 98% 0 in 0 W/m2
18:40 49.5 °F 48.9 °F 30.3 in Calm   3 mph 98% 0 in 0 W/m2
18:45 49.5 °F 48.9 °F 30.3 in Calm   4 mph 98% 0 in 0 W/m2
18:50 49.3 °F 48.7 °F 30.3 in Calm     98% 0 in 0 W/m2
18:55 49.3 °F 48.7 °F 30.3 in Calm   4 mph 98% 0 in 0 W/m2
19:00 49.5 °F 48.9 °F 30.3 in Calm     98% 0 in 0 W/m2
19:05 49.5 °F 48.9 °F 30.3 in Calm   4 mph 98% 0 in 0 W/m2
19:10 49.5 °F 48.9 °F 30.3 in Calm     98% 0 in 0 W/m2
19:15 49.5 °F 48.9 °F 30.3 in WSW 2 mph 7 mph 98% 0 in 0 W/m2
19:20 49.5 °F 48.9 °F 30.3 in SSW 2.9 mph 3 mph 98% 0 in 0 W/m2
19:25 49.6 °F 49.1 °F 30.3 in Calm   1 mph 98% 0 in 0 W/m2
19:30 49.5 °F 48.9 °F 30.3 in Calm   1 mph 98% 0 in 0 W/m2
19:35 49.5 °F 48.9 °F 30.3 in Calm     98% 0 in 0 W/m2
19:40 49.6 °F 49.1 °F 30.3 in SE 0.9 mph 3 mph 98% 0 in 0 W/m2
19:45 49.6 °F 49.1 °F 30.3 in Calm   3 mph 98% 0 in 0 W/m2
19:50 49.6 °F 49.1 °F 30.3 in Calm   4 mph 98% 0 in 0 W/m2
19:55 49.6 °F 49.1 °F 30.3 in Calm   2 mph 98% 0 in 0 W/m2
20:00 49.6 °F 49.1 °F 30.3 in Calm   4 mph 98% 0 in 0 W/m2
20:05 49.6 °F 49.1 °F 30.3 in Calm     98% 0 in 0 W/m2
20:10 49.6 °F 49.1 °F 30.3 in Calm   3 mph 98% 0 in 0 W/m2
20:15 49.5 °F 48.9 °F 30.3 in ESE 2 mph 2 mph 98% 0 in 0 W/m2
20:20 49.5 °F 48.9 °F 30.3 in NE 4 mph 4 mph 98% 0 in 0 W/m2
20:25 49.6 °F 49.1 °F 30.3 in NE 2 mph 2 mph 98% 0 in 0 W/m2
20:30 49.6 °F 49.1 °F 30.3 in East 2 mph 2 mph 98% 0 in 0 W/m2
20:35 49.3 °F 48.7 °F 30.3 in East 2 mph 4 mph 98% 0 in 0 W/m2
20:40 49.1 °F 48.6 °F 30.3 in Calm   1 mph 98% 0 in 0 W/m2
20:45 48.9 °F 48.4 °F 30.3 in ESE 2 mph 2 mph 98% 0 in 0 W/m2
20:50 48.7 °F 48.2 °F 30.3 in East 2 mph 3 mph 98% 0 in 0 W/m2
20:55 48.7 °F 48.2 °F 30.3 in East 2.9 mph 3 mph 98% 0 in 0 W/m2
21:01 48.7 °F 48.2 °F 30.3 in Calm   1 mph 98% 0 in 0 W/m2
21:06 48.7 °F 48.2 °F 30.3 in ESE 2 mph 4 mph 98% 0 in 0 W/m2
21:11 48.7 °F 48.2 °F 30.3 in Calm     98% 0 in 0 W/m2
21:16 48.6 °F 48 °F 30.3 in Calm   4 mph 98% 0.01 in 0 W/m2
21:21 48.7 °F 48.2 °F 30.3 in Calm     98% 0.01 in 0 W/m2
21:26 48.9 °F 48.4 °F 30.3 in ESE 0.9 mph 3 mph 98% 0.01 in 0 W/m2
21:31 48.9 °F 48.4 °F 30.3 in East 0.9 mph 2 mph 98% 0.01 in 0 W/m2
21:36 48.7 °F 48.2 °F 30.3 in East 0.9 mph 2 mph 98% 0.01 in 0 W/m2
21:41 48.7 °F 48.2 °F 30.3 in Calm   3 mph 98% 0.01 in 0 W/m2
21:46 48.6 °F 48 °F 30.3 in SE 2 mph 4 mph 98% 0.01 in 0 W/m2
21:51 48.6 °F 48 °F 30.3 in Calm     98% 0.01 in 0 W/m2
21:56 48.6 °F 48 °F 30.3 in ESE 4 mph 4 mph 98% 0.01 in 0 W/m2
22:01 48.6 °F 48 °F 30.3 in ENE 2 mph 3 mph 98% 0.01 in 0 W/m2
22:06 48.6 °F 48 °F 30.3 in East 0.9 mph 4 mph 98% 0.01 in 0 W/m2
22:11 48.6 °F 48 °F 30.3 in East 2.9 mph 3 mph 98% 0.01 in 0 W/m2
22:16 48.6 °F 48 °F 30.3 in Calm   2 mph 98% 0 in 0 W/m2
22:21 48.7 °F 48.2 °F 30.3 in Calm     98% 0 in 0 W/m2
22:26 48.7 °F 48.2 °F 30.3 in Calm     98% 0 in 0 W/m2
22:31 48.9 °F 48.4 °F 30.3 in East 2.9 mph 4 mph 98% 0 in 0 W/m2
22:36 48.9 °F 48.4 °F 30.3 in ENE 2 mph 3 mph 98% 0 in 0 W/m2
22:41 48.9 °F 48.4 °F 30.3 in East 2 mph 3 mph 98% 0 in 0 W/m2
22:46 48.9 °F 48.4 °F 30.3 in East 2 mph 3 mph 98% 0 in 0 W/m2
22:51 48.9 °F 48.4 °F 30.3 in East 0.9 mph 3 mph 98% 0 in 0 W/m2
22:56 48.7 °F 48.2 °F 30.3 in East 0.9 mph 2 mph 98% 0 in 0 W/m2
23:01 48.7 °F 48.2 °F 30.3 in East 2.9 mph 3 mph 98% 0 in 0 W/m2
23:06 48.7 °F 48.2 °F 30.3 in East 0.9 mph 2 mph 98% 0 in 0 W/m2
23:11 48.6 °F 48 °F 30.3 in ESE 2 mph 3 mph 98% 0 in 0 W/m2
23:16 48.4 °F 47.8 °F 30.3 in East 2.9 mph 4 mph 98% 0 in 0 W/m2
23:21 48.4 °F 47.8 °F 30.3 in ENE 2 mph 3 mph 98% 0 in 0 W/m2
23:26 48.2 °F 47.7 °F 30.3 in Calm   3 mph 98% 0 in 0 W/m2
23:31 48.2 °F 47.7 °F 30.3 in ESE 0.9 mph 2 mph 98% 0 in 0 W/m2
23:36 48 °F 47.5 °F 30.3 in Calm   3 mph 98% 0 in 0 W/m2
23:41 48 °F 47.5 °F 30.3 in Calm   2 mph 98% 0 in 0 W/m2
23:46 48 °F 47.5 °F 30.3 in Calm   3 mph 98% 0 in 0 W/m2
23:51 48 °F 47.5 °F 30.3 in Calm     98% 0 in 0 W/m2
23:57 48.4 °F 47.8 °F 30.3 in Calm   2 mph 98% 0 in 0 W/m2
Juneau County Weather
Compliments of Weather Underground - 4 mb